createdAt,value
2022-08-19T00:00:29.978Z,14.17
2022-08-19T00:02:56.705Z,14.87
2022-08-19T00:05:24.094Z,15.27
2022-08-19T00:07:52.037Z,15.47
2022-08-19T00:10:20.185Z,16.87
2022-08-19T00:12:47.282Z,14.53
2022-08-19T00:15:17.481Z,14.60
2022-08-19T00:17:44.933Z,14.97
2022-08-19T00:20:17.567Z,14.43
2022-08-19T00:22:45.954Z,15.20
2022-08-19T00:38:38.406Z,13.80
2022-08-19T00:41:06.801Z,13.07
2022-08-19T00:43:34.153Z,14.87
2022-08-19T00:46:02.408Z,16.07
2022-08-19T00:48:29.192Z,16.20
2022-08-19T00:50:56.642Z,16.17
2022-08-19T00:53:27.457Z,18.60
2022-08-19T00:55:58.849Z,17.27
2022-08-19T00:58:29.949Z,16.27
2022-08-19T01:00:57.042Z,17.60
2022-08-19T01:03:24.258Z,16.23
2022-08-19T01:05:52.943Z,16.57
2022-08-19T01:08:20.887Z,15.10
2022-08-19T01:10:57.346Z,13.77
2022-08-19T01:13:29.002Z,15.57
2022-08-19T01:16:14.460Z,16.17
2022-08-19T01:18:43.094Z,17.00
2022-08-19T01:21:30.045Z,16.87
2022-08-19T01:23:56.988Z,15.17
2022-08-19T01:26:25.460Z,15.90
2022-08-19T01:28:59.680Z,15.77
2022-08-19T01:31:33.586Z,14.40
2022-08-19T01:34:01.890Z,16.17
2022-08-19T01:36:35.822Z,15.47
2022-08-19T01:39:06.369Z,17.50
2022-08-19T01:41:34.026Z,17.13
2022-08-19T01:44:17.654Z,17.00
2022-08-19T01:46:48.650Z,16.20
2022-08-19T01:49:17.397Z,16.03
2022-08-19T01:51:44.397Z,16.00
2022-08-19T01:54:14.076Z,15.13
2022-08-19T01:56:52.876Z,15.50
2022-08-19T01:59:22.442Z,16.03
2022-08-19T02:01:49.256Z,15.57
2022-08-19T02:04:16.928Z,15.17
2022-08-19T02:06:43.753Z,15.30
2022-08-19T02:09:10.454Z,14.63
2022-08-19T02:11:39.143Z,16.37
2022-08-19T02:14:08.560Z,15.67
2022-08-19T02:16:36.986Z,14.70
2022-08-19T02:19:04.547Z,16.40
2022-08-19T02:21:31.531Z,15.07
2022-08-19T02:23:59.282Z,14.23
2022-08-19T02:26:27.552Z,15.33
2022-08-19T02:28:55.562Z,14.47
2022-08-19T02:31:25.709Z,15.07
2022-08-19T02:33:53.452Z,14.33
2022-08-19T02:36:24.983Z,16.47
2022-08-19T02:38:54.919Z,14.90
2022-08-19T02:41:27.883Z,14.83
2022-08-19T02:44:29.422Z,13.60
2022-08-19T02:46:48.390Z,13.57
2022-08-19T02:49:17.202Z,13.70
2022-08-19T02:51:46.025Z,15.47
2022-08-19T02:54:14.444Z,15.90
2022-08-19T02:56:43.027Z,17.13
2022-08-19T02:59:11.440Z,16.97
2022-08-19T03:01:41.549Z,18.33
2022-08-19T03:04:11.020Z,16.50
2022-08-19T03:06:39.648Z,16.37
2022-08-19T03:09:06.499Z,14.10
2022-08-19T03:11:34.082Z,14.13
2022-08-19T03:14:01.918Z,17.17
2022-08-19T03:16:33.483Z,13.83
2022-08-19T03:19:01.764Z,13.83
2022-08-19T03:21:31.934Z,15.10
2022-08-19T03:24:01.713Z,13.23
2022-08-19T03:26:29.723Z,13.43
2022-08-19T03:28:58.210Z,14.50
2022-08-19T03:31:43.319Z,14.50
2022-08-19T03:34:20.800Z,14.00
2022-08-19T03:36:48.601Z,16.43
2022-08-19T03:39:16.515Z,17.73
2022-08-19T03:41:48.208Z,16.90
2022-08-19T03:44:19.082Z,15.70
2022-08-19T03:46:56.283Z,14.67
2022-08-19T03:49:27.129Z,14.23
2022-08-19T03:51:57.794Z,14.40
2022-08-19T03:54:26.089Z,14.00
2022-08-19T03:56:55.376Z,15.23
2022-08-19T03:59:29.312Z,15.07
2022-08-19T04:01:57.634Z,14.47
2022-08-19T04:04:25.721Z,15.20
2022-08-19T04:06:56.778Z,16.83
2022-08-19T04:09:23.750Z,14.73
2022-08-19T04:11:56.265Z,14.90
2022-08-19T04:14:31.188Z,15.17
2022-08-19T04:16:59.673Z,13.63
2022-08-19T04:19:27.070Z,13.83
2022-08-19T04:21:55.206Z,14.97
2022-08-19T04:24:23.382Z,14.50
2022-08-19T04:26:51.017Z,14.40
2022-08-19T04:29:26.351Z,14.73
2022-08-19T04:31:55.490Z,15.63
2022-08-19T04:34:25.013Z,16.93
2022-08-19T04:36:54.211Z,14.80
2022-08-19T04:39:44.980Z,15.63
2022-08-19T04:42:31.235Z,15.87
2022-08-19T04:44:59.586Z,13.47
2022-08-19T04:47:48.253Z,14.43
2022-08-19T04:50:14.582Z,13.37
2022-08-19T04:52:44.938Z,13.57
2022-08-19T04:55:13.489Z,14.13
2022-08-19T04:57:42.424Z,14.27
2022-08-19T05:00:10.324Z,13.93
2022-08-19T05:02:37.646Z,15.93
2022-08-19T05:05:04.809Z,16.57
2022-08-19T05:07:31.732Z,14.83
2022-08-19T05:09:59.243Z,13.17
2022-08-19T05:12:29.289Z,15.43
2022-08-19T05:14:58.603Z,17.90
2022-08-19T05:17:29.417Z,17.47
2022-08-19T05:20:16.327Z,17.73
2022-08-19T05:22:46.137Z,15.37
2022-08-19T05:25:16.027Z,17.50
2022-08-19T05:27:43.315Z,15.00
2022-08-19T05:30:11.693Z,16.27
2022-08-19T05:32:39.765Z,16.10
2022-08-19T05:35:07.253Z,15.87
2022-08-19T05:37:34.127Z,16.57
2022-08-19T05:40:00.990Z,16.40
2022-08-19T05:42:27.768Z,16.40
2022-08-19T05:44:54.774Z,16.17
2022-08-19T05:47:22.305Z,17.10
2022-08-19T05:49:50.779Z,17.70
2022-08-19T05:52:18.835Z,18.00
2022-08-19T05:54:51.475Z,18.10
2022-08-19T05:57:19.549Z,17.90
2022-08-19T05:59:49.090Z,17.37
2022-08-19T06:02:15.888Z,18.90
2022-08-19T06:04:43.646Z,18.40
2022-08-19T06:07:12.373Z,19.90
2022-08-19T06:09:40.461Z,16.80
2022-08-19T06:12:08.007Z,16.70
2022-08-19T06:14:40.184Z,17.60
2022-08-19T06:17:09.326Z,18.00
2022-08-19T06:19:40.583Z,18.67
2022-08-19T06:22:09.038Z,15.97
2022-08-19T06:24:36.308Z,18.43
2022-08-19T06:27:06.581Z,17.80
2022-08-19T06:29:34.317Z,17.53
2022-08-19T06:32:03.470Z,20.93
2022-08-19T06:34:32.809Z,18.00
2022-08-19T06:37:02.041Z,19.50
2022-08-19T06:39:31.978Z,18.03
2022-08-19T06:42:01.601Z,18.80
2022-08-19T06:44:35.393Z,18.87
2022-08-19T06:47:14.714Z,16.70
2022-08-19T06:49:50.270Z,15.97
2022-08-19T06:52:17.088Z,16.83
2022-08-19T06:54:45.946Z,18.20
2022-08-19T06:57:22.621Z,18.57
2022-08-19T06:59:49.344Z,18.97
2022-08-19T07:04:48.231Z,17.73
2022-08-19T07:07:21.857Z,20.70
2022-08-19T07:09:59.996Z,22.90
2022-08-19T07:12:35.415Z,17.80
2022-08-19T07:15:05.865Z,17.23
2022-08-19T07:17:34.434Z,20.93
2022-08-19T07:20:05.540Z,18.93
2022-08-19T07:22:40.891Z,18.63
2022-08-19T07:25:10.014Z,20.63
2022-08-19T07:27:38.083Z,20.43
2022-08-19T07:30:08.347Z,19.13
2022-08-19T07:32:39.545Z,21.30
2022-08-19T07:35:07.269Z,20.73
2022-08-19T07:37:36.377Z,19.17
2022-08-19T07:40:05.902Z,22.07
2022-08-19T07:42:33.238Z,24.40
2022-08-19T07:45:00.137Z,21.40
2022-08-19T07:47:47.713Z,18.53
2022-08-19T07:50:15.341Z,22.70
2022-08-19T07:52:45.192Z,22.13
2022-08-19T07:55:41.550Z,21.53
2022-08-19T07:58:11.492Z,19.20
2022-08-19T08:00:38.886Z,23.80
2022-08-19T08:03:05.719Z,23.30
2022-08-19T08:05:51.284Z,22.63
2022-08-19T08:08:36.615Z,18.63
2022-08-19T08:11:04.109Z,21.17
2022-08-19T08:13:36.165Z,24.20
2022-08-19T08:16:03.689Z,19.80
2022-08-19T08:18:30.648Z,19.63
2022-08-19T08:20:58.273Z,19.83
2022-08-19T08:23:30.261Z,18.57
2022-08-19T08:25:58.991Z,19.87
2022-08-19T08:28:29.521Z,19.80
2022-08-19T08:30:58.195Z,17.65
2022-08-19T08:33:30.055Z,19.35
2022-08-19T08:36:09.032Z,17.80
2022-08-19T08:38:41.596Z,19.20
2022-08-19T08:41:50.484Z,16.90
2022-08-19T08:44:24.102Z,16.95
2022-08-19T08:46:58.337Z,16.15
2022-08-19T08:49:41.728Z,16.48
2022-08-19T08:52:21.111Z,15.90
2022-08-19T08:54:55.506Z,19.42
2022-08-19T08:57:49.761Z,16.65
2022-08-19T09:00:28.867Z,16.00
2022-08-19T09:02:56.905Z,13.98
2022-08-19T09:05:27.099Z,12.10
2022-08-19T09:08:37.677Z,13.48
2022-08-19T09:11:10.293Z,12.55
2022-08-19T09:13:46.442Z,11.00
2022-08-19T09:16:18.326Z,12.63
2022-08-19T09:18:54.674Z,9.07
2022-08-19T09:21:25.987Z,7.30
2022-08-19T09:23:59.477Z,7.47
2022-08-19T09:26:29.813Z,6.20
2022-08-19T09:29:14.363Z,5.45
2022-08-19T09:31:41.221Z,5.50
2022-08-19T09:34:09.278Z,5.65
2022-08-19T09:36:53.382Z,5.90
2022-08-19T09:39:20.140Z,4.20
2022-08-19T09:41:49.098Z,4.22
2022-08-19T09:44:16.849Z,3.90
2022-08-19T09:46:47.972Z,5.00
2022-08-19T09:49:15.714Z,5.30
2022-08-19T09:51:50.388Z,4.40
2022-08-19T09:54:23.412Z,4.40
2022-08-19T09:56:56.500Z,4.55
2022-08-19T09:59:23.686Z,4.57
2022-08-19T10:01:52.466Z,4.47
2022-08-19T10:04:22.329Z,5.20
2022-08-19T10:06:53.967Z,5.35
2022-08-19T10:09:33.962Z,6.78
2022-08-19T10:12:03.165Z,5.55
2022-08-19T10:14:31.516Z,5.68
2022-08-19T10:16:59.291Z,4.70
2022-08-19T10:19:26.741Z,5.47
2022-08-19T10:21:55.805Z,5.35
2022-08-19T10:24:28.771Z,4.13
2022-08-19T10:26:59.080Z,3.92
2022-08-19T10:29:31.952Z,6.32
2022-08-19T10:32:53.745Z,3.72
2022-08-19T10:35:21.836Z,3.80
2022-08-19T10:37:57.313Z,3.80
2022-08-19T10:44:38.015Z,4.50
2022-08-19T10:47:05.406Z,4.50
2022-08-19T10:50:03.542Z,3.92
2022-08-19T10:52:38.857Z,5.10
2022-08-19T10:55:26.866Z,3.92
2022-08-19T10:58:05.952Z,5.10
2022-08-19T11:00:33.464Z,5.28
2022-08-19T11:03:00.485Z,4.57
2022-08-19T11:05:27.271Z,4.80
2022-08-19T11:07:54.288Z,4.35
2022-08-19T11:10:22.133Z,7.00
2022-08-19T11:12:49.834Z,3.95
2022-08-19T11:15:16.689Z,4.53
2022-08-19T11:17:44.710Z,3.90
2022-08-19T11:20:13.242Z,3.78
2022-08-19T11:22:41.821Z,4.47
2022-08-19T11:25:11.612Z,4.03
2022-08-19T11:27:43.059Z,3.95
2022-08-19T11:30:12.916Z,3.63
2022-08-19T11:32:45.676Z,4.05
2022-08-19T11:35:16.884Z,3.67
2022-08-19T11:37:43.715Z,3.70
2022-08-19T11:40:11.194Z,4.25
2022-08-19T11:42:56.690Z,3.92
2022-08-19T11:45:28.200Z,3.33
2022-08-19T11:47:56.168Z,3.80
2022-08-19T11:50:24.598Z,3.55
2022-08-19T11:52:55.033Z,3.20
2022-08-19T11:55:22.307Z,3.22
2022-08-19T11:57:49.215Z,3.22
2022-08-19T12:00:16.438Z,4.18
2022-08-19T12:02:43.593Z,3.65
2022-08-19T12:05:12.946Z,3.75
2022-08-19T12:07:41.790Z,3.53
2022-08-19T12:10:09.343Z,7.45
2022-08-19T12:12:41.403Z,4.50
2022-08-19T12:15:08.932Z,3.63
2022-08-19T12:17:35.826Z,3.58
2022-08-19T12:20:02.743Z,4.32
2022-08-19T12:22:30.031Z,5.28
2022-08-19T12:24:56.899Z,4.60
2022-08-19T12:27:32.262Z,3.47
2022-08-19T12:30:11.465Z,3.65
2022-08-19T12:32:40.028Z,4.32
2022-08-19T12:35:09.074Z,3.22
2022-08-19T12:37:36.174Z,3.42
2022-08-19T12:40:04.233Z,6.20
2022-08-19T12:42:31.403Z,3.28
2022-08-19T12:44:58.287Z,3.53
2022-08-19T12:47:27.346Z,3.58
2022-08-19T12:49:56.048Z,3.75
2022-08-19T12:52:28.327Z,4.15
2022-08-19T12:54:56.962Z,3.20
2022-08-19T12:57:31.832Z,4.50
2022-08-19T13:00:00.965Z,2.92
2022-08-19T13:02:27.712Z,3.33
2022-08-19T13:04:54.754Z,4.15
2022-08-19T13:07:21.899Z,4.05
2022-08-19T13:09:48.578Z,5.00
2022-08-19T13:12:15.520Z,4.13
2022-08-19T13:14:42.755Z,4.47
2022-08-19T13:17:10.174Z,4.22
2022-08-19T13:19:41.056Z,4.65
2022-08-19T13:22:13.265Z,5.47
2022-08-19T13:24:46.906Z,6.45
2022-08-19T13:27:14.334Z,4.15
2022-08-19T13:30:00.906Z,3.55
2022-08-19T13:32:46.235Z,5.10
2022-08-19T13:35:16.716Z,4.80
2022-08-19T13:37:44.493Z,6.72
2022-08-19T13:40:19.521Z,5.40
2022-08-19T13:42:48.606Z,5.03
2022-08-19T13:45:21.494Z,4.40
2022-08-19T13:47:53.566Z,4.70
2022-08-19T13:50:26.476Z,4.43
2022-08-19T13:52:54.758Z,3.95
2022-08-19T13:55:25.002Z,4.03
2022-08-19T13:57:58.783Z,3.47
2022-08-19T14:00:28.355Z,4.43
2022-08-19T14:02:57.668Z,5.25
2022-08-19T14:05:26.544Z,3.97
2022-08-19T14:07:54.429Z,4.22
2022-08-19T14:10:24.108Z,4.18
2022-08-19T14:12:56.183Z,4.70
2022-08-19T14:15:24.371Z,4.20
2022-08-19T14:17:51.526Z,3.67
2022-08-19T14:20:18.914Z,5.80
2022-08-19T14:22:47.081Z,3.88
2022-08-19T14:25:19.945Z,4.22
2022-08-19T14:27:47.213Z,4.55
2022-08-19T14:30:17.473Z,4.47
2022-08-19T14:32:44.444Z,4.07
2022-08-19T14:35:13.450Z,5.43
2022-08-19T14:37:45.801Z,5.00
2022-08-19T14:40:15.538Z,5.75
2022-08-19T14:42:43.102Z,4.45
2022-08-19T14:45:11.379Z,4.18
2022-08-19T14:47:39.612Z,4.40
2022-08-19T14:50:10.553Z,5.18
2022-08-19T14:52:45.510Z,4.22
2022-08-19T14:55:12.294Z,6.40
2022-08-19T14:57:41.182Z,4.63
2022-08-19T15:00:12.566Z,4.53
2022-08-19T15:02:39.644Z,5.05
2022-08-19T15:05:07.470Z,4.95
2022-08-19T15:07:34.313Z,5.90
2022-08-19T15:10:01.074Z,4.85
2022-08-19T15:12:27.845Z,4.63
2022-08-19T15:14:56.778Z,5.10
2022-08-19T15:17:43.721Z,7.13
2022-08-19T15:20:14.534Z,5.18
2022-08-19T15:22:42.711Z,4.95
2022-08-19T15:25:11.898Z,5.05
2022-08-19T15:27:40.501Z,5.72
2022-08-19T15:30:09.474Z,5.18
2022-08-19T15:32:37.313Z,4.97
2022-08-19T15:35:05.909Z,8.90
2022-08-19T15:37:35.194Z,6.05
2022-08-19T15:40:08.984Z,5.10
2022-08-19T15:42:37.359Z,4.80
2022-08-19T15:45:08.196Z,7.10
2022-08-19T15:47:35.747Z,4.85
2022-08-19T15:50:10.558Z,5.53
2022-08-19T15:52:49.504Z,5.50
2022-08-19T15:55:32.267Z,4.45
2022-08-19T15:58:28.040Z,6.28
2022-08-19T16:01:16.339Z,4.63
2022-08-19T16:04:03.224Z,4.82
2022-08-19T16:06:32.013Z,5.65
2022-08-19T16:09:02.059Z,5.40
2022-08-19T16:11:32.516Z,4.80
2022-08-19T16:14:00.345Z,5.47
2022-08-19T16:16:33.982Z,5.40
2022-08-19T16:19:03.995Z,6.78
2022-08-19T16:21:33.163Z,4.93
2022-08-19T16:24:02.337Z,4.97
2022-08-19T16:26:29.920Z,6.43
2022-08-19T16:29:00.003Z,5.68
2022-08-19T16:31:28.196Z,6.15
2022-08-19T16:33:56.011Z,7.30
2022-08-19T16:36:25.425Z,5.90
2022-08-19T16:38:53.589Z,5.63
2022-08-19T16:41:22.467Z,5.80
2022-08-19T16:43:52.521Z,7.60
2022-08-19T16:46:21.609Z,5.28
2022-08-19T16:48:50.398Z,6.50
2022-08-19T16:51:18.612Z,7.15
2022-08-19T16:53:45.649Z,8.18
2022-08-19T16:56:12.717Z,7.57
2022-08-19T16:58:39.549Z,6.25
2022-08-19T17:01:08.652Z,6.22
2022-08-19T17:03:37.447Z,5.68
2022-08-19T17:06:20.489Z,5.95
2022-08-19T17:08:50.026Z,5.50
2022-08-19T17:11:19.074Z,6.97
2022-08-19T17:13:47.879Z,4.95
2022-08-19T17:16:27.320Z,7.20
2022-08-19T17:18:56.628Z,7.80
2022-08-19T17:21:27.922Z,6.72
2022-08-19T17:23:56.874Z,6.28
2022-08-19T17:26:25.353Z,5.65
2022-08-19T17:28:54.837Z,6.20
2022-08-19T17:31:24.433Z,9.07
2022-08-19T17:33:52.094Z,5.88
2022-08-19T17:36:23.667Z,6.32
2022-08-19T17:38:51.580Z,5.57
2022-08-19T17:41:18.847Z,5.82
2022-08-19T17:43:45.817Z,7.95
2022-08-19T17:46:18.686Z,5.03
2022-08-19T17:48:52.241Z,5.57
2022-08-19T17:51:41.963Z,4.93
2022-08-19T17:54:15.228Z,5.78
2022-08-19T17:56:43.041Z,7.00
2022-08-19T17:59:13.779Z,4.20
2022-08-19T18:01:52.161Z,5.90
2022-08-19T18:04:20.246Z,5.70
2022-08-19T18:06:52.933Z,4.55
2022-08-19T18:09:40.394Z,4.68
2022-08-19T18:12:12.197Z,6.05
2022-08-19T18:14:40.123Z,5.47
2022-08-19T18:17:10.017Z,5.90
2022-08-19T18:19:42.993Z,5.38
2022-08-19T18:22:22.967Z,5.13
2022-08-19T18:24:50.043Z,4.28
2022-08-19T18:27:16.754Z,5.75
2022-08-19T18:29:44.227Z,4.57
2022-08-19T18:32:14.525Z,4.82
2022-08-19T18:34:43.461Z,5.13
2022-08-19T18:37:11.165Z,4.15
2022-08-19T18:39:57.289Z,4.05
2022-08-19T18:42:42.711Z,4.47
2022-08-19T18:45:29.077Z,6.47
2022-08-19T18:48:27.059Z,5.78
2022-08-19T18:50:56.595Z,4.78
2022-08-19T18:53:23.924Z,5.22
2022-08-19T18:55:51.917Z,7.53
2022-08-19T18:58:20.813Z,5.78
2022-08-19T19:00:50.146Z,5.22
2022-08-19T19:03:16.921Z,3.58
2022-08-19T19:05:44.183Z,4.07
2022-08-19T19:08:13.336Z,3.85
2022-08-19T19:10:41.554Z,3.85
2022-08-19T19:13:08.821Z,4.90
2022-08-19T19:15:36.983Z,5.60
2022-08-19T19:18:03.766Z,4.15
2022-08-19T19:20:36.366Z,5.17
2022-08-19T19:23:04.045Z,2.90
2022-08-19T19:25:49.869Z,6.87
2022-08-19T19:28:25.747Z,3.10
2022-08-19T19:30:54.256Z,8.77
2022-08-19T19:33:21.386Z,3.97
2022-08-19T19:35:48.183Z,5.67
2022-08-19T19:38:15.178Z,4.70
2022-08-19T19:40:47.471Z,3.90
2022-08-19T19:43:36.491Z,3.60
2022-08-19T19:46:09.163Z,3.50
2022-08-19T19:48:35.954Z,2.93
2022-08-19T19:51:04.289Z,4.13
2022-08-19T19:53:31.257Z,3.40
2022-08-19T19:55:58.794Z,3.93
2022-08-19T19:58:30.149Z,3.87
2022-08-19T20:00:58.599Z,2.87
2022-08-19T20:03:26.838Z,6.77
2022-08-19T20:05:54.801Z,3.53
2022-08-19T20:08:40.266Z,4.23
2022-08-19T20:11:07.293Z,3.53
2022-08-19T20:13:35.201Z,4.27
2022-08-19T20:16:05.804Z,3.80
2022-08-19T20:18:32.717Z,4.13
2022-08-19T20:21:00.101Z,6.87
2022-08-19T20:23:27.117Z,3.33
2022-08-19T20:25:54.370Z,2.70
2022-08-19T20:28:22.774Z,3.33
2022-08-19T20:30:49.865Z,4.03
2022-08-19T20:33:17.473Z,3.30
2022-08-19T20:35:45.341Z,4.03
2022-08-19T20:38:12.626Z,3.27
2022-08-19T20:40:40.979Z,4.27
2022-08-19T20:43:12.947Z,4.33
2022-08-19T20:45:40.549Z,3.30
2022-08-19T20:48:09.080Z,5.20
2022-08-19T20:50:36.801Z,3.13
2022-08-19T20:53:12.325Z,3.57
2022-08-19T20:55:39.397Z,4.83
2022-08-19T20:58:06.226Z,3.93
2022-08-19T21:00:33.530Z,4.47
2022-08-19T21:03:00.313Z,3.47
2022-08-19T21:05:30.356Z,4.97
2022-08-19T21:07:57.863Z,3.10
2022-08-19T21:10:26.165Z,3.50
2022-08-19T21:12:53.472Z,3.37
2022-08-19T21:15:20.244Z,3.83
2022-08-19T21:17:48.511Z,3.63
2022-08-19T21:20:16.075Z,5.23
2022-08-19T21:22:42.877Z,3.30
2022-08-19T21:25:10.493Z,5.77
2022-08-19T21:27:37.838Z,3.87
2022-08-19T21:30:06.004Z,6.30
2022-08-19T21:32:32.824Z,3.70
2022-08-19T21:34:59.719Z,3.27
2022-08-19T21:37:26.497Z,4.60
2022-08-19T21:39:54.994Z,3.50
2022-08-19T21:42:23.444Z,5.30
2022-08-19T21:44:50.477Z,4.93
2022-08-19T21:47:17.750Z,3.67
2022-08-19T21:49:44.577Z,3.03
2022-08-19T21:52:11.460Z,3.13
2022-08-19T21:54:38.918Z,3.67
2022-08-19T21:57:10.886Z,3.27
2022-08-19T21:59:44.031Z,3.37
2022-08-19T22:02:21.274Z,3.00
2022-08-19T22:04:50.596Z,2.70
2022-08-19T22:07:18.553Z,3.07
2022-08-19T22:09:47.551Z,3.73
2022-08-19T22:12:47.278Z,4.43
2022-08-19T22:15:21.129Z,2.90
2022-08-19T22:17:49.186Z,3.10
2022-08-19T22:20:19.497Z,5.30
2022-08-19T22:22:52.494Z,3.17
2022-08-19T22:25:31.201Z,3.23
2022-08-19T22:28:01.726Z,3.03
2022-08-19T22:30:32.367Z,3.57
2022-08-19T22:33:03.137Z,4.10
2022-08-19T22:35:34.356Z,3.10
2022-08-19T22:38:02.392Z,5.77
2022-08-19T22:40:30.450Z,3.63
2022-08-19T22:43:03.967Z,2.43
2022-08-19T22:45:33.387Z,1.97
2022-08-19T22:48:00.579Z,2.97
2022-08-19T22:50:27.509Z,2.73
2022-08-19T22:52:58.473Z,3.90
2022-08-19T22:55:26.834Z,3.43
2022-08-19T22:57:54.416Z,2.40
2022-08-19T23:00:23.826Z,3.20
2022-08-19T23:02:51.977Z,2.37
2022-08-19T23:05:21.967Z,2.97
2022-08-19T23:07:52.807Z,3.43
2022-08-19T23:10:26.952Z,2.37
2022-08-19T23:12:58.137Z,3.43
2022-08-19T23:15:28.047Z,3.03
2022-08-19T23:18:01.912Z,3.10
2022-08-19T23:20:32.621Z,2.33
2022-08-19T23:23:03.223Z,2.83
2022-08-19T23:25:32.169Z,4.77
2022-08-19T23:28:17.531Z,3.07
2022-08-19T23:30:47.534Z,2.93
2022-08-19T23:33:24.675Z,3.27
2022-08-19T23:35:53.464Z,3.27
2022-08-19T23:38:23.196Z,3.50
2022-08-19T23:40:55.703Z,3.10
2022-08-19T23:43:24.380Z,4.20
2022-08-19T23:45:52.027Z,3.63
2022-08-19T23:48:18.929Z,3.87
2022-08-19T23:50:46.775Z,2.60
2022-08-19T23:53:15.196Z,3.03
2022-08-19T23:55:45.030Z,3.50
2022-08-19T23:58:13.795Z,3.00
